KJAX

Jacksonville International Airport

Jacksonville, Florida, USA
METAR KJAX 221456Z 18009KT 10SM SCT020TCU BKN150 BKN250 28/22 A3012 RMK AO2 SLP199 TCU OHD T02780217 50006
Observed Flight Rules
May-22 @ 14:56 UTC (32 minutes ago) Visual Flight Rules
Wind Visibility Clouds
180° at 9 knots 10 miles
  • Scattered at 2,000' AGL
  • Broken at 15,000' AGL
  • Broken at 25,000' AGL
Temperatures Readings
Current 28°C / 82°F
Dewpoint 22°C / 72°F
Humidity 70%
Altimeter 30.12" Hg
Pressure 1019.9 hPa
Elevation 10
METAR KJAX 221456Z 18009KT 10SM SCT020TCU BKN150 BKN250 28/22 A3012 RMK AO2 SLP199 TCU OHD T02780217 50006
Observed Flight Rules
May-22 @ 14:56 UTC
(32 minutes ago)
VFR
Wind Visibility
180° at 9 knots 10 miles
Clouds
  • Scattered at 2,000' AGL
  • Broken at 15,000' AGL
  • Broken at 25,000' AGL
Temperature Dewpoint
28°C / 82°F 22°C / 72°F
Humidity Altimeter Pressure
70% 30.12" Hg 1019.9 hPa